Time;durP1;ratioP1;P1;durP2;ratioP2;P2;SDS_P1;SDS_P2;PMS_P1;PMS_P2;Temp;Humidity;BMP_temperature;BMP_pressure;BME280_temperature;BME280_humidity;BME280_pressure;Samples;Min_cycle;Max_cycle;Signal;HPM_P1;HPM_P2
2021/09/15 00:00:43;;;;;;;2.55;2.35;;;21.00;67.00;;;;;;5030165;28;20057;-85
2021/09/15 00:03:12;;;;;;;5.75;1.65;;;21.00;67.30;;;;;;5030463;28;20084;-83
2021/09/15 00:05:37;;;;;;;2.55;2.35;;;20.70;67.30;;;;;;5029914;28;20064;-84
2021/09/15 00:08:03;;;;;;;1.27;1.17;;;20.80;66.70;;;;;;5030206;28;20397;-84
2021/09/15 00:10:30;;;;;;;1.00;1.00;;;20.80;66.40;;;;;;5029865;28;20156;-84
2021/09/15 00:12:55;;;;;;;2.55;1.98;;;21.00;65.00;;;;;;5029635;28;20017;-81
2021/09/15 00:15:21;;;;;;;1.50;1.40;;;21.00;65.10;;;;;;5030863;28;20026;-82
2021/09/15 00:17:47;;;;;;;3.10;2.88;;;21.00;65.00;;;;;;5016448;28;20160;-83
2021/09/15 00:20:13;;;;;;;1.60;1.50;;;21.00;64.60;;;;;;5033694;28;20060;-81
2021/09/15 00:22:38;;;;;;;2.50;2.30;;;20.90;64.80;;;;;;5033835;28;20025;-85
2021/09/15 00:25:05;;;;;;;2.55;2.35;;;20.90;65.10;;;;;;5034215;28;20507;-80
2021/09/15 00:27:30;;;;;;;1.88;1.77;;;20.90;65.20;;;;;;5033662;28;20025;-83
2021/09/15 00:29:56;;;;;;;2.00;1.90;;;20.90;64.90;;;;;;5033331;28;20440;-84
2021/09/15 00:32:22;;;;;;;4.97;2.88;;;20.70;65.30;;;;;;5025596;28;20018;-85
2021/09/15 00:34:48;;;;;;;1.20;1.10;;;20.60;65.80;;;;;;5033722;28;20026;-84
2021/09/15 00:37:14;;;;;;;1.50;1.40;;;20.30;66.70;;;;;;5033240;28;20032;-85
2021/09/15 00:39:39;;;;;;;1.63;1.52;;;20.40;66.30;;;;;;5032209;28;20033;-86
2021/09/15 00:42:08;;;;;;;1.50;1.40;;;20.40;66.20;;;;;;5033170;28;20029;-83
2021/09/15 00:44:34;;;;;;;1.30;1.20;;;20.40;65.90;;;;;;5047362;28;20123;-82
2021/09/15 00:47:00;;;;;;;1.50;1.40;;;20.40;65.90;;;;;;5053022;28;20104;-80
2021/09/15 00:49:28;;;;;;;1.83;1.73;;;20.20;66.70;;;;;;5053351;28;20162;-84
2021/09/15 00:51:53;;;;;;;1.40;1.30;;;20.30;66.90;;;;;;5034838;28;20060;-82
2021/09/15 00:54:21;;;;;;;1.50;1.40;;;20.20;67.60;;;;;;5053231;28;20063;-79
2021/09/15 00:56:46;;;;;;;1.27;1.17;;;20.10;67.70;;;;;;5035241;28;20476;-81
2021/09/15 00:59:12;;;;;;;3.90;2.85;;;20.10;68.20;;;;;;5053029;28;20025;-81
2021/09/15 01:01:38;;;;;;;1.30;1.20;;;20.20;68.30;;;;;;5034964;28;20044;-81
2021/09/15 01:04:05;;;;;;;1.48;1.38;;;20.20;68.50;;;;;;5053375;28;20484;-82
2021/09/15 01:06:34;;;;;;;1.58;1.48;;;20.20;68.80;;;;;;5034861;28;20056;-82
2021/09/15 01:09:02;;;;;;;1.50;1.40;;;20.20;68.70;;;;;;5053139;28;20017;-83
2021/09/15 01:11:29;;;;;;;2.33;2.15;;;20.10;69.40;;;;;;5052806;28;20399;-85
2021/09/15 01:13:55;;;;;;;1.35;1.25;;;20.10;69.80;;;;;;5035124;28;20021;-82
2021/09/15 01:16:23;;;;;;;1.40;1.30;;;20.10;69.40;;;;;;5052692;28;20535;-82
2021/09/15 01:18:49;;;;;;;1.55;1.45;;;20.10;69.60;;;;;;5052729;28;20075;-82
2021/09/15 01:21:15;;;;;;;1.60;1.50;;;20.20;68.80;;;;;;5034266;28;20033;-83
2021/09/15 01:23:41;;;;;;;2.45;2.25;;;20.20;68.70;;;;;;5034607;28;20704;-82
2021/09/15 01:26:07;;;;;;;4.32;2.38;;;19.90;69.20;;;;;;5052226;28;20048;-84
2021/09/15 01:28:33;;;;;;;2.40;2.20;;;19.80;69.30;;;;;;5034929;28;20059;-84
2021/09/15 01:30:58;;;;;;;4.85;4.43;;;19.90;69.40;;;;;;5033908;28;20029;-87
2021/09/15 01:33:25;;;;;;;23.23;3.75;;;19.90;69.10;;;;;;5014904;28;20025;-84
2021/09/15 01:35:51;;;;;;;3.58;2.10;;;19.90;69.40;;;;;;5032984;28;20017;-85
2021/09/15 01:38:17;;;;;;;1.80;1.70;;;19.90;69.00;;;;;;5014645;28;20040;-85
2021/09/15 01:40:43;;;;;;;1.50;1.40;;;19.90;69.80;;;;;;5032142;28;20052;-85
2021/09/15 01:43:09;;;;;;;3.20;2.35;;;19.60;70.30;;;;;;5014780;28;20017;-83
2021/09/15 01:45:35;;;;;;;2.80;2.60;;;19.60;70.60;;;;;;5033157;28;20040;-82
2021/09/15 01:48:04;;;;;;;1.95;1.83;;;19.70;70.60;;;;;;5015829;28;20025;-89
2021/09/15 01:53:59;;;;;;;2.30;1.85;;;19.50;71.60;;;;;;5033129;28;20036;-88
2021/09/15 01:56:41;;;;;;;;;;;19.50;71.70;;;;;;5011021;28;20052;-87
2021/09/15 01:59:07;;;;;;;1.90;1.80;;;19.70;71.20;;;;;;5032269;28;19909;-80
2021/09/15 02:01:32;;;;;;;2.67;2.47;;;19.70;71.50;;;;;;5031953;28;20099;-83
2021/09/15 02:03:58;;;;;;;5.28;2.95;;;19.70;71.60;;;;;;5031997;28;20021;-80
2021/09/15 02:06:24;;;;;;;2.60;2.40;;;19.60;71.90;;;;;;5032240;28;20099;-84
2021/09/15 02:08:58;;;;;;;2.55;2.28;;;19.50;72.50;;;;;;5031925;28;20105;-81
2021/09/15 02:11:28;;;;;;;1.77;1.67;;;19.60;72.60;;;;;;5014282;28;20033;-80
2021/09/15 02:13:54;;;;;;;1.52;1.42;;;19.40;72.70;;;;;;5031641;28;20045;-84
2021/09/15 02:16:20;;;;;;;2.50;2.35;;;19.30;73.70;;;;;;5031622;28;20071;-80
2021/09/15 02:18:46;;;;;;;2.38;2.17;;;19.40;73.80;;;;;;5031782;28;20029;-82
2021/09/15 02:21:12;;;;;;;1.90;1.80;;;19.40;74.10;;;;;;5031751;28;20029;-79
2021/09/15 02:23:37;;;;;;;1.50;1.40;;;19.20;73.70;;;;;;5031051;28;20539;-81
2021/09/15 02:26:03;;;;;;;2.80;2.03;;;19.20;73.90;;;;;;5013846;28;20040;-81
2021/09/15 02:28:29;;;;;;;1.90;1.80;;;19.00;73.90;;;;;;5031245;28;20032;-81
2021/09/15 02:30:55;;;;;;;2.88;2.58;;;19.20;73.60;;;;;;5031321;28;20100;-80
2021/09/15 02:33:21;;;;;;;1.40;1.30;;;19.20;72.70;;;;;;5028686;28;20045;-86
2021/09/15 02:35:46;;;;;;;1.95;1.75;;;19.10;72.40;;;;;;5031540;28;20433;-83
2021/09/15 02:38:12;;;;;;;1.50;1.40;;;19.20;71.90;;;;;;5028918;28;20026;-81
2021/09/15 02:40:38;;;;;;;1.48;1.38;;;19.30;71.50;;;;;;5029664;28;20529;-80
2021/09/15 02:43:04;;;;;;;1.73;1.63;;;19.30;70.90;;;;;;5032719;28;20018;-88
2021/09/15 02:45:30;;;;;;;3.72;3.35;;;19.30;71.50;;;;;;5051488;28;20064;-88
2021/09/15 02:47:55;;;;;;;2.85;2.65;;;19.30;70.90;;;;;;5051324;28;20020;-81
2021/09/15 02:50:21;;;;;;;1.40;1.30;;;19.30;71.00;;;;;;5051391;28;20685;-81
2021/09/15 02:52:49;;;;;;;1.55;1.45;;;19.30;70.90;;;;;;5050732;28;20028;-79
2021/09/15 02:55:15;;;;;;;1.77;1.67;;;19.40;71.40;;;;;;5033502;28;20063;-80
2021/09/15 02:57:41;;;;;;;4.13;2.08;;;19.10;72.20;;;;;;5032595;28;20036;-87
2021/09/15 03:00:17;;;;;;;1.48;1.38;;;19.00;73.20;;;;;;5033431;28;20037;-86
2021/09/15 03:02:44;;;;;;;1.77;1.67;;;18.90;72.70;;;;;;5051289;28;20400;-87
2021/09/15 03:05:10;;;;;;;1.50;1.40;;;19.00;72.80;;;;;;5051640;28;20036;-87
2021/09/15 03:07:36;;;;;;;1.65;1.55;;;18.90;72.90;;;;;;5051091;28;20021;-87
2021/09/15 03:10:04;;;;;;;1.52;1.42;;;18.80;72.60;;;;;;5051005;28;20037;-84
2021/09/15 03:12:30;;;;;;;1.77;1.67;;;18.80;72.70;;;;;;5050349;28;20032;-84
2021/09/15 03:14:55;;;;;;;3.28;2.95;;;18.90;73.00;;;;;;5032680;28;20029;-87
2021/09/15 03:17:21;;;;;;;2.28;2.08;;;19.00;73.20;;;;;;5032468;28;20059;-80
2021/09/15 03:19:47;;;;;;;1.63;1.52;;;19.00;73.40;;;;;;5050515;28;20033;-84
2021/09/15 03:22:12;;;;;;;4.32;2.33;;;18.90;73.50;;;;;;5049806;28;20391;-83
2021/09/15 03:24:38;;;;;;;1.40;1.30;;;18.90;74.10;;;;;;5050212;28;20024;-79
2021/09/15 03:27:04;;;;;;;2.25;2.05;;;18.80;74.40;;;;;;5032584;28;20044;-83
2021/09/15 03:29:31;;;;;;;1.83;1.73;;;18.90;74.80;;;;;;5049918;28;20029;-81
2021/09/15 03:31:57;;;;;;;1.50;1.40;;;18.80;75.20;;;;;;5044297;28;20061;-82
2021/09/15 03:34:23;;;;;;;2.22;2.03;;;18.70;75.50;;;;;;5030383;28;20025;-85
2021/09/15 03:36:50;;;;;;;2.05;1.92;;;18.70;76.20;;;;;;5012682;28;20080;-82
2021/09/15 03:39:15;;;;;;;2.05;1.90;;;18.70;76.70;;;;;;5030341;28;20372;-81
2021/09/15 03:41:41;;;;;;;2.25;2.10;;;18.80;76.10;;;;;;5030260;28;20473;-82
2021/09/15 03:44:08;;;;;;;1.50;1.40;;;18.60;76.20;;;;;;5012543;28;20049;-83
2021/09/15 03:46:34;;;;;;;2.22;2.10;;;18.60;76.40;;;;;;5012884;28;20026;-81
2021/09/15 03:49:00;;;;;;;2.03;1.90;;;18.70;76.90;;;;;;5030338;28;20108;-83
2021/09/15 03:51:26;;;;;;;2.00;1.85;;;18.60;76.90;;;;;;5011753;28;20424;-84
2021/09/15 03:53:52;;;;;;;5.30;2.40;;;18.60;76.80;;;;;;5029852;28;20428;-86
2021/09/15 03:56:18;;;;;;;1.50;1.40;;;18.50;78.00;;;;;;4988157;28;20049;-85
2021/09/15 03:59:19;;;;;;;4.50;2.13;;;18.60;76.70;;;;;;4988271;28;20601;-80
2021/09/15 04:02:12;;;;;;;;;;;18.60;76.40;;;;;;4988355;28;20049;-83
2021/09/15 04:04:38;;;;;;;1.83;1.73;;;18.70;77.10;;;;;;4987883;28;20642;-83
2021/09/15 04:07:40;;;;;;;2.33;2.13;;;18.70;77.20;;;;;;4988423;28;20030;-83
2021/09/15 04:10:24;;;;;;;1.65;1.55;;;18.70;77.00;;;;;;4988088;28;20501;-81
2021/09/15 04:13:11;;;;;;;2.17;2.03;;;18.60;77.80;;;;;;4987966;28;20121;-82
2021/09/15 04:15:36;;;;;;;1.85;1.75;;;18.60;78.20;;;;;;4988474;28;20034;-85
2021/09/15 04:18:02;;;;;;;3.75;2.95;;;18.70;78.20;;;;;;4987898;28;20368;-83
2021/09/15 04:20:28;;;;;;;1.60;1.50;;;18.70;77.60;;;;;;4987960;28;20046;-83
2021/09/15 04:22:54;;;;;;;1.80;1.70;;;18.70;77.50;;;;;;4972294;28;20041;-80
2021/09/15 04:33:33;;;;;;;2.67;2.47;;;18.50;79.60;;;;;;5029954;28;20389;-80
2021/09/15 04:35:58;;;;;;;4.03;3.47;;;18.60;79.80;;;;;;5029846;28;20462;-78
2021/09/15 04:38:24;;;;;;;1.70;1.60;;;18.60;79.40;;;;;;5028517;28;20025;-79
2021/09/15 04:40:50;;;;;;;2.05;1.95;;;18.60;79.70;;;;;;5028386;28;20539;-84
2021/09/15 04:43:16;;;;;;;2.55;2.35;;;18.50;80.70;;;;;;5028541;28;20091;-83
2021/09/15 04:45:54;;;;;;;2.17;2.05;;;18.60;79.60;;;;;;5084941;22;20057;-85
2021/09/15 04:48:23;;;;;;;2.47;2.10;;;18.60;78.80;;;;;;5029220;28;20396;-84
2021/09/15 04:54:52;;;;;;;1.90;1.80;;;18.70;78.80;;;;;;5029411;28;20508;-82
2021/09/15 04:57:17;;;;;;;2.08;1.92;;;18.80;79.20;;;;;;5029476;28;20018;-84
2021/09/15 05:00:33;;;;;;;4.18;3.35;;;18.50;79.30;;;;;;5011561;28;20032;-80
2021/09/15 05:03:06;;;;;;;7.25;6.53;;;18.50;79.70;;;;;;5007568;28;20042;-84
2021/09/15 05:05:32;;;;;;;7.13;6.38;;;18.80;79.00;;;;;;5015053;28;20033;-81
2021/09/15 05:07:58;;;;;;;7.63;7.03;;;18.80;77.90;;;;;;5032938;28;20037;-83
2021/09/15 05:10:26;;;;;;;11.13;9.63;;;18.90;77.60;;;;;;5032386;28;20132;-84
2021/09/15 05:12:54;;;;;;;6.20;5.25;;;18.90;77.70;;;;;;5032288;28;20029;-82
2021/09/15 05:15:21;;;;;;;3.42;3.13;;;19.00;77.80;;;;;;5032535;28;20033;-82
2021/09/15 05:17:47;;;;;;;1.88;1.77;;;19.10;77.80;;;;;;5014165;28;20026;-79
2021/09/15 05:20:17;;;;;;;1.50;1.40;;;19.10;77.40;;;;;;5032382;28;20044;-81
2021/09/15 05:22:45;;;;;;;1.73;1.63;;;19.00;77.30;;;;;;5032262;28;20185;-77
2021/09/15 05:25:12;;;;;;;3.35;2.55;;;18.90;78.10;;;;;;5032411;28;20473;-80
2021/09/15 05:27:38;;;;;;;1.98;1.88;;;18.90;77.70;;;;;;5032038;28;20033;-79
2021/09/15 05:30:04;;;;;;;2.78;2.58;;;19.00;77.50;;;;;;5032319;28;20033;-77
2021/09/15 05:32:30;;;;;;;1.67;1.58;;;19.10;77.70;;;;;;5031333;28;20108;-77
2021/09/15 05:34:55;;;;;;;1.98;1.88;;;19.30;78.20;;;;;;5033250;28;20105;-78
2021/09/15 05:37:21;;;;;;;1.55;1.45;;;19.40;78.30;;;;;;5033331;28;20056;-80
2021/09/15 05:39:47;;;;;;;3.72;2.28;;;19.40;80.70;;;;;;5014082;28;20018;-79
2021/09/15 05:42:13;;;;;;;2.92;2.70;;;19.40;79.50;;;;;;5014335;28;20493;-77
2021/09/15 05:44:38;;;;;;;1.40;1.30;;;19.30;81.60;;;;;;5031264;28;20057;-79
2021/09/15 05:47:04;;;;;;;1.90;1.80;;;19.40;78.40;;;;;;5014002;28;20021;-80
2021/09/15 05:49:30;;;;;;;2.25;2.05;;;19.30;80.80;;;;;;5032604;28;20381;-80
2021/09/15 05:51:56;;;;;;;3.05;2.00;;;19.20;79.60;;;;;;5031612;28;20473;-76
2021/09/15 05:54:21;;;;;;;5.88;5.28;;;19.20;82.60;;;;;;5031722;28;20065;-75
2021/09/15 05:56:47;;;;;;;3.50;3.20;;;19.20;78.20;;;;;;5032362;28;20108;-79
2021/09/15 05:59:13;;;;;;;2.80;2.58;;;19.30;78.10;;;;;;5031895;28;20029;-80
2021/09/15 06:01:39;;;;;;;1.92;1.73;;;19.20;77.30;;;;;;5013622;28;20083;-82
2021/09/15 06:04:04;;;;;;;1.77;1.67;;;19.20;79.10;;;;;;5031774;28;20029;-79
2021/09/15 06:06:30;;;;;;;1.83;1.70;;;19.40;79.30;;;;;;5031137;28;20512;-79
2021/09/15 06:08:56;;;;;;;7.70;3.67;;;19.50;77.00;;;;;;5031245;28;20400;-77
2021/09/15 06:11:22;;;;;;;2.50;2.25;;;19.60;77.10;;;;;;5012846;28;20053;-77
2021/09/15 06:13:49;;;;;;;2.25;2.08;;;19.60;76.90;;;;;;5012661;28;20095;-79
2021/09/15 06:16:15;;;;;;;2.40;2.20;;;19.60;78.00;;;;;;5013309;28;20124;-80
2021/09/15 06:18:41;;;;;;;2.25;2.10;;;19.70;77.00;;;;;;5031220;28;20017;-82
2021/09/15 06:21:07;;;;;;;1.77;1.67;;;19.70;74.70;;;;;;5031523;28;20359;-78
2021/09/15 06:23:34;;;;;;;1.92;1.83;;;19.70;76.50;;;;;;5031134;28;20030;-83
2021/09/15 06:26:00;;;;;;;1.70;1.60;;;19.80;79.10;;;;;;5030536;28;20430;-77
2021/09/15 06:28:29;;;;;;;2.63;2.42;;;19.90;78.10;;;;;;5030876;28;20587;-79
2021/09/15 06:30:55;;;;;;;2.85;2.17;;;19.90;75.40;;;;;;5030531;28;20108;-77
2021/09/15 06:33:23;;;;;;;1.80;1.52;;;19.80;75.60;;;;;;5013278;28;20057;-77
2021/09/15 06:35:52;;;;;;;1.35;1.25;;;19.70;75.30;;;;;;5031203;28;20037;-79
2021/09/15 06:38:19;;;;;;;2.25;2.08;;;19.80;75.40;;;;;;5028192;28;20022;-79
2021/09/15 06:40:45;;;;;;;1.20;1.10;;;19.70;76.40;;;;;;5030373;28;20032;-78
2021/09/15 06:43:10;;;;;;;1.60;1.50;;;19.70;76.30;;;;;;5030602;28;20025;-79
2021/09/15 06:45:36;;;;;;;1.75;1.65;;;19.60;76.20;;;;;;5030164;28;20409;-76
2021/09/15 06:48:02;;;;;;;3.10;2.80;;;19.70;76.30;;;;;;5013000;28;20025;-77
2021/09/15 06:50:28;;;;;;;1.63;1.52;;;19.80;76.90;;;;;;5030554;28;20512;-79
2021/09/15 06:52:54;;;;;;;1.20;1.10;;;19.90;75.90;;;;;;5030257;28;20056;-80
2021/09/15 06:55:20;;;;;;;1.48;1.38;;;20.10;77.10;;;;;;5029943;28;20099;-79
2021/09/15 06:57:45;;;;;;;2.10;1.92;;;20.30;77.40;;;;;;5030289;28;20441;-82
2021/09/15 07:00:12;;;;;;;1.40;1.30;;;20.40;75.40;;;;;;5011854;28;20033;-79
2021/09/15 07:02:38;;;;;;;1.67;1.58;;;20.30;75.60;;;;;;5009884;28;20033;-82
2021/09/15 07:05:05;;;;;;;1.13;1.10;;;20.40;73.60;;;;;;5012333;28;20033;-80
2021/09/15 07:07:31;;;;;;;2.67;2.47;;;20.50;75.30;;;;;;5011616;28;20111;-81
2021/09/15 07:09:56;;;;;;;4.40;2.95;;;20.30;75.00;;;;;;5026995;28;20053;-81
2021/09/15 07:12:23;;;;;;;1.80;1.70;;;20.50;75.60;;;;;;5029745;28;20412;-78
2021/09/15 07:14:48;;;;;;;1.55;1.45;;;20.70;77.70;;;;;;5012488;28;20022;-79
2021/09/15 07:17:14;;;;;;;2.17;1.50;;;20.80;74.70;;;;;;5030231;28;20095;-79
2021/09/15 07:19:40;;;;;;;2.10;1.90;;;20.90;75.10;;;;;;5030066;28;20044;-79
2021/09/15 07:22:06;;;;;;;1.52;1.42;;;20.80;73.90;;;;;;5030598;28;20473;-81
2021/09/15 07:24:31;;;;;;;1.83;1.73;;;20.90;74.00;;;;;;5030057;28;20018;-79
2021/09/15 07:26:57;;;;;;;1.60;1.48;;;21.10;74.30;;;;;;5012562;28;20032;-78
2021/09/15 07:29:23;;;;;;;1.80;1.70;;;21.00;72.90;;;;;;5030449;28;20048;-80
2021/09/15 07:31:49;;;;;;;2.58;2.33;;;21.10;74.20;;;;;;5030120;28;20025;-81
2021/09/15 07:34:15;;;;;;;1.45;1.35;;;21.20;73.40;;;;;;5012398;28;20127;-80
2021/09/15 07:36:41;;;;;;;1.52;1.42;;;21.30;75.80;;;;;;5030367;28;20468;-80
2021/09/15 07:39:07;;;;;;;1.77;1.58;;;21.30;72.70;;;;;;5012213;28;20503;-79
2021/09/15 07:41:33;;;;;;;1.83;1.73;;;21.50;72.70;;;;;;5030082;28;20049;-81
2021/09/15 07:44:00;;;;;;;1.88;1.75;;;21.50;73.10;;;;;;5012587;28;20044;-82
2021/09/15 07:46:26;;;;;;;2.10;1.90;;;21.50;74.00;;;;;;5030252;28;20503;-77
2021/09/15 07:48:53;;;;;;;1.48;1.38;;;21.50;72.40;;;;;;5030338;28;20025;-80
2021/09/15 07:51:20;;;;;;;8.25;2.58;;;21.60;72.50;;;;;;5029696;28;20037;-80
2021/09/15 07:53:46;;;;;;;1.10;1.10;;;21.70;72.00;;;;;;5029859;28;20069;-80
2021/09/15 07:56:12;;;;;;;1.38;1.27;;;21.90;74.60;;;;;;5011887;28;20021;-80
2021/09/15 07:58:38;;;;;;;1.95;1.85;;;21.90;71.00;;;;;;5012227;28;20116;-78
2021/09/15 08:01:04;;;;;;;2.13;1.98;;;22.10;70.20;;;;;;5030032;28;20120;-81
2021/09/15 08:03:29;;;;;;;1.05;1.00;;;22.30;71.60;;;;;;5029800;28;20036;-83
2021/09/15 08:06:01;;;;;;;18.33;2.28;;;22.50;69.30;;;;;;5028107;28;20422;-79
2021/09/15 08:08:27;;;;;;;1.40;1.30;;;22.60;69.50;;;;;;5029600;28;20051;-80
2021/09/15 08:10:53;;;;;;;1.45;1.35;;;22.80;70.60;;;;;;5029751;28;20029;-80
2021/09/15 08:13:20;;;;;;;0.95;0.95;;;22.60;69.90;;;;;;5012027;28;20082;-79
2021/09/15 08:15:47;;;;;;;2.08;1.92;;;22.80;71.00;;;;;;5029669;28;20057;-84
2021/09/15 08:18:13;;;;;;;1.50;1.40;;;22.90;68.00;;;;;;5029174;28;20418;-81
2021/09/15 08:20:39;;;;;;;1.13;1.10;;;23.30;68.00;;;;;;5042682;28;20138;-83
2021/09/15 08:23:05;;;;;;;1.65;1.55;;;23.70;67.70;;;;;;5049635;28;20032;-76
2021/09/15 08:25:30;;;;;;;1.20;1.10;;;23.80;67.90;;;;;;5049446;28;20025;-79
2021/09/15 08:27:56;;;;;;;1.33;1.17;;;24.10;66.30;;;;;;5049506;28;20099;-80
2021/09/15 08:30:22;;;;;;;1.00;1.00;;;24.40;65.50;;;;;;5049347;28;20021;-81
2021/09/15 08:32:48;;;;;;;1.38;1.27;;;24.60;66.20;;;;;;5045097;28;20388;-80
2021/09/15 08:35:14;;;;;;;3.10;1.35;;;25.00;65.20;;;;;;5039655;28;20130;-79
2021/09/15 08:37:40;;;;;;;1.50;1.40;;;25.20;64.80;;;;;;5051886;28;20075;-76
2021/09/15 08:40:09;;;;;;;6.18;1.35;;;25.50;64.20;;;;;;5053198;28;20040;-77
2021/09/15 08:42:35;;;;;;;1.30;1.20;;;25.70;62.70;;;;;;5052435;28;20058;-76
2021/09/15 08:45:06;;;;;;;4.63;3.30;;;25.80;62.30;;;;;;5035036;28;20546;-80
2021/09/15 08:47:35;;;;;;;1.15;1.05;;;25.70;61.90;;;;;;5035053;28;20025;-80
2021/09/15 08:50:01;;;;;;;1.42;1.33;;;25.90;61.60;;;;;;5052995;28;20041;-79
2021/09/15 08:52:27;;;;;;;1.40;1.30;;;26.10;62.40;;;;;;5053110;28;20025;-80
2021/09/15 08:54:54;;;;;;;1.10;1.02;;;25.90;61.70;;;;;;5035446;28;20040;-81
2021/09/15 08:57:20;;;;;;;0.90;0.88;;;26.20;61.40;;;;;;5034994;28;20043;-83
2021/09/15 08:59:46;;;;;;;2.33;2.13;;;26.40;60.90;;;;;;5052699;28;20025;-77
2021/09/15 09:02:13;;;;;;;2.33;1.73;;;26.60;60.90;;;;;;5052567;28;20043;-79
2021/09/15 09:04:52;;;;;;;2.30;1.95;;;26.80;60.70;;;;;;5053363;28;20461;-80
2021/09/15 09:07:18;;;;;;;1.05;0.85;;;26.80;60.60;;;;;;5052913;28;20087;-80
2021/09/15 09:09:48;;;;;;;1.10;1.02;;;27.10;60.30;;;;;;5052752;28;20029;-78
2021/09/15 09:12:18;;;;;;;3.03;2.30;;;27.20;60.00;;;;;;5052753;28;20032;-75
2021/09/15 09:14:45;;;;;;;1.55;1.45;;;27.50;59.50;;;;;;5053116;28;20029;-77
2021/09/15 09:17:31;;;;;;;0.82;0.82;;;27.50;59.60;;;;;;5052234;28;20060;-75
2021/09/15 09:20:16;;;;;;;0.77;0.77;;;27.50;58.00;;;;;;5053024;28;20150;-78
2021/09/15 09:23:04;;;;;;;1.27;1.15;;;27.50;57.70;;;;;;5052328;28;20025;-75
2021/09/15 09:25:36;;;;;;;1.23;0.98;;;27.90;58.30;;;;;;5025684;28;20129;-77
2021/09/15 09:28:34;;;;;;;1.40;1.30;;;28.00;57.30;;;;;;5030807;28;20070;-76
2021/09/15 09:31:02;;;;;;;1.00;1.00;;;28.00;57.50;;;;;;5030469;28;20033;-78
2021/09/15 09:33:28;;;;;;;0.75;0.75;;;28.10;58.20;;;;;;5032719;28;20104;-76
2021/09/15 09:36:00;;;;;;;0.73;0.73;;;28.30;57.40;;;;;;5032538;28;20037;-77
2021/09/15 09:38:44;;;;;;;0.38;0.38;;;28.60;57.40;;;;;;5032492;28;20638;-77
2021/09/15 09:41:15;;;;;;;1.95;1.48;;;28.70;56.90;;;;;;5032345;28;20037;-77
2021/09/15 09:43:45;;;;;;;2.35;1.30;;;28.90;56.20;;;;;;5032466;28;20049;-75
2021/09/15 09:46:12;;;;;;;1.85;1.63;;;29.10;55.30;;;;;;5030697;28;20041;-80
2021/09/15 09:48:42;;;;;;;9.55;1.63;;;29.20;56.30;;;;;;5031860;28;20484;-79
2021/09/15 09:51:30;;;;;;;0.93;0.85;;;29.10;55.70;;;;;;5031179;28;20037;-79
2021/09/15 09:54:27;;;;;;;1.65;1.50;;;29.30;56.10;;;;;;5027806;28;20033;-74
2021/09/15 09:56:54;;;;;;;0.75;0.70;;;29.20;55.40;;;;;;5007896;28;20089;-79
2021/09/15 09:59:21;;;;;;;1.10;1.00;;;29.40;55.00;;;;;;5030829;28;20033;-75
2021/09/15 10:01:54;;;;;;;1.45;0.82;;;29.60;54.10;;;;;;5030938;28;20048;-75
2021/09/15 10:04:21;;;;;;;3.05;1.50;;;29.80;55.30;;;;;;5013318;28;20497;-76
2021/09/15 10:06:47;;;;;;;1.63;1.52;;;29.90;54.40;;;;;;5031177;28;20104;-76
2021/09/15 10:09:14;;;;;;;0.63;0.57;;;30.00;53.70;;;;;;5031181;28;20040;-79
2021/09/15 10:11:41;;;;;;;3.22;1.02;;;30.30;54.20;;;;;;5031583;28;20053;-77
2021/09/15 10:14:18;;;;;;;1.33;1.20;;;30.50;53.60;;;;;;5030499;28;20117;-81
2021/09/15 10:17:01;;;;;;;0.65;0.65;;;30.50;53.40;;;;;;5031312;28;20021;-78
2021/09/15 10:19:41;;;;;;;0.57;0.55;;;30.40;53.40;;;;;;5031516;28;20037;-77
2021/09/15 10:22:08;;;;;;;1.05;0.95;;;30.30;52.60;;;;;;5030971;28;20109;-79
2021/09/15 10:24:53;;;;;;;0.63;0.63;;;30.50;52.80;;;;;;5030900;28;20425;-81
2021/09/15 10:27:21;;;;;;;0.98;0.90;;;30.10;51.70;;;;;;5030827;28;20060;-79
2021/09/15 10:30:08;;;;;;;0.70;0.60;;;30.10;51.60;;;;;;5030733;28;20026;-79
2021/09/15 10:32:48;;;;;;;1.15;0.98;;;30.00;52.00;;;;;;5029427;28;20029;-78
2021/09/15 10:35:35;;;;;;;0.77;0.63;;;30.20;51.90;;;;;;5030935;28;20033;-75
2021/09/15 10:38:00;;;;;;;2.60;0.85;;;30.30;51.30;;;;;;5029765;28;20028;-79
2021/09/15 10:40:31;;;;;;;0.47;0.47;;;30.70;50.90;;;;;;5030760;28;20033;-74
2021/09/15 10:42:58;;;;;;;0.38;0.35;;;31.00;50.40;;;;;;5030882;28;20107;-78
2021/09/15 10:45:29;;;;;;;0.40;0.40;;;30.60;50.50;;;;;;5012599;28;20077;-76
2021/09/15 10:48:12;;;;;;;0.73;0.70;;;30.90;50.80;;;;;;5006100;28;20037;-78
2021/09/15 10:50:40;;;;;;;0.50;0.40;;;31.00;50.50;;;;;;5020848;28;20038;-76
2021/09/15 10:53:12;;;;;;;0.57;0.55;;;31.10;50.10;;;;;;5024028;28;20026;-78
2021/09/15 10:55:44;;;;;;;1.00;0.63;;;31.30;49.30;;;;;;5027650;28;20025;-75
2021/09/15 10:58:24;;;;;;;2.20;0.70;;;31.30;50.00;;;;;;5030165;28;20112;-81
2021/09/15 11:00:58;;;;;;;0.50;0.38;;;31.70;50.00;;;;;;5011196;28;20045;-77
2021/09/15 11:03:41;;;;;;;0.65;0.65;;;31.80;49.80;;;;;;5030216;28;20033;-79
2021/09/15 11:06:07;;;;;;;1.38;0.85;;;31.90;49.60;;;;;;5030021;28;20044;-81
2021/09/15 11:08:42;;;;;;;0.40;0.40;;;32.10;49.40;;;;;;5029472;28;20022;-79
2021/09/15 11:11:21;;;;;;;0.68;0.65;;;32.20;48.80;;;;;;5028516;28;20041;-76
2021/09/15 11:13:50;;;;;;;0.20;0.20;;;31.60;48.90;;;;;;5030490;28;20105;-80
2021/09/15 11:16:38;;;;;;;0.95;0.75;;;31.80;49.20;;;;;;5030753;28;20029;-80
2021/09/15 11:19:07;;;;;;;2.80;1.05;;;32.20;49.20;;;;;;5030035;28;20023;-78
2021/09/15 11:21:37;;;;;;;0.40;0.30;;;32.30;48.60;;;;;;5029157;28;20041;-79
2021/09/15 11:24:10;;;;;;;0.38;0.30;;;32.40;48.20;;;;;;5012516;28;20426;-79
2021/09/15 11:26:37;;;;;;;2.67;1.30;;;32.30;47.80;;;;;;5030179;28;20025;-79
2021/09/15 11:29:03;;;;;;;1.05;0.80;;;32.30;47.40;;;;;;5029821;28;20021;-80
2021/09/15 11:31:36;;;;;;;0.75;0.63;;;32.50;47.70;;;;;;5030485;28;20033;-78
2021/09/15 11:34:13;;;;;;;1.08;0.98;;;31.80;44.30;;;;;;5030271;28;20117;-79
2021/09/15 11:36:47;;;;;;;0.70;0.70;;;31.40;45.90;;;;;;5030175;28;20052;-78
2021/09/15 11:39:17;;;;;;;0.38;0.35;;;31.40;46.10;;;;;;5028400;28;20496;-77
2021/09/15 11:41:43;;;;;;;0.20;0.20;;;32.00;43.70;;;;;;5011040;28;20091;-79
2021/09/15 11:44:09;;;;;;;0.52;0.52;;;32.30;44.20;;;;;;5010196;28;20022;-78
2021/09/15 11:46:37;;;;;;;0.40;0.38;;;32.30;43.10;;;;;;5010442;28;20038;-79
2021/09/15 11:49:05;;;;;;;0.30;0.30;;;32.40;42.80;;;;;;5028796;28;20053;-79
2021/09/15 11:51:35;;;;;;;0.43;0.43;;;32.70;42.90;;;;;;5029609;28;20421;-79
2021/09/15 11:56:35;;;;;;;0.57;0.55;;;32.50;43.00;;;;;;5029836;28;20318;-78
2021/09/15 11:59:02;;;;;;;0.63;0.60;;;32.50;42.50;;;;;;5029922;28;20072;-77
2021/09/15 12:01:30;;;;;;;0.75;0.75;;;32.20;43.10;;;;;;5029881;28;20053;-78
2021/09/15 12:03:58;;;;;;;0.70;0.60;;;32.40;43.50;;;;;;5030145;28;20477;-79
2021/09/15 12:06:25;;;;;;;0.35;0.35;;;32.60;43.10;;;;;;5029922;28;20037;-80
2021/09/15 12:08:52;;;;;;;0.20;0.20;;;32.80;43.60;;;;;;5029501;28;20029;-80
2021/09/15 12:11:18;;;;;;;0.50;0.50;;;33.10;43.30;;;;;;5030442;28;20079;-80
2021/09/15 12:13:44;;;;;;;0.30;0.30;;;33.50;44.40;;;;;;5034025;28;20021;-80
2021/09/15 12:16:10;;;;;;;1.00;0.85;;;33.10;44.80;;;;;;5033415;28;20393;-80
2021/09/15 12:18:43;;;;;;;0.20;0.20;;;32.20;43.60;;;;;;5034337;28;20040;-80
2021/09/15 12:21:21;;;;;;;0.93;0.70;;;32.40;43.30;;;;;;5034087;28;20049;-80
2021/09/15 12:23:48;;;;;;;1.20;0.57;;;32.80;43.90;;;;;;5034227;28;20469;-80
2021/09/15 12:26:14;;;;;;;2.20;0.95;;;32.80;44.50;;;;;;5033760;28;20037;-80
2021/09/15 12:28:40;;;;;;;0.52;0.40;;;33.20;44.80;;;;;;5033253;28;20022;-80
2021/09/15 12:31:16;;;;;;;0.85;0.68;;;33.50;44.40;;;;;;5033597;28;20024;-81
2021/09/15 12:33:41;;;;;;;1.77;0.95;;;33.80;44.40;;;;;;5027044;28;20017;-78
2021/09/15 12:36:20;;;;;;;0.55;0.55;;;33.80;43.90;;;;;;5033949;28;20033;-75
2021/09/15 12:38:51;;;;;;;0.40;0.40;;;33.90;44.20;;;;;;5032330;28;20021;-79
2021/09/15 12:41:21;;;;;;;0.20;0.20;;;34.10;43.90;;;;;;5032356;28;20420;-79
2021/09/15 12:43:47;;;;;;;;;;;34.40;43.90;;;;;;5032636;28;20117;-77
2021/09/15 12:46:28;;;;;;;0.77;0.77;;;34.50;44.30;;;;;;4963416;28;20012;-79
2021/09/15 12:48:54;;;;;;;0.50;0.50;;;33.80;43.50;;;;;;4952297;29;20066;-79
2021/09/15 12:51:32;;;;;;;0.40;0.40;;;34.00;43.50;;;;;;4951804;29;20019;-78
2021/09/15 12:53:58;;;;;;;1.30;1.05;;;34.20;43.80;;;;;;4952133;28;20039;-79
2021/09/15 12:56:33;;;;;;;3.53;0.70;;;33.90;43.90;;;;;;4951925;28;20027;-78
2021/09/15 12:59:01;;;;;;;15.10;1.10;;;34.30;44.40;;;;;;4951781;28;20027;-79
2021/09/15 13:01:26;;;;;;;0.80;0.63;;;33.30;43.60;;;;;;4951698;28;20049;-78
2021/09/15 13:03:52;;;;;;;1.65;0.80;;;33.40;44.80;;;;;;4951370;28;20036;-78
2021/09/15 13:06:26;;;;;;;0.38;0.30;;;33.60;43.80;;;;;;4951105;28;20063;-79
2021/09/15 13:08:55;;;;;;;1.83;1.33;;;33.50;44.00;;;;;;5018101;28;20467;-79
2021/09/15 13:11:22;;;;;;;1.02;0.75;;;33.70;44.10;;;;;;4968186;23;20078;-79
2021/09/15 13:13:49;;;;;;;0.57;0.52;;;33.70;44.40;;;;;;5051790;28;20033;-79